sensor_id;sensor_type;location;lat;lon;timestamp;P1;durP1;ratioP1;P2;durP2;ratioP2
75854;SDS011;64502;59.976;30.316;2024-02-21T00:01:23;3.97;;;1.58;;
75854;SDS011;64502;59.976;30.316;2024-02-21T00:03:49;4.15;;;1.60;;
75854;SDS011;64502;59.976;30.316;2024-02-21T00:06:14;4.43;;;1.70;;
75854;SDS011;64502;59.976;30.316;2024-02-21T00:08:40;5.22;;;1.52;;
75854;SDS011;64502;59.976;30.316;2024-02-21T00:11:05;5.25;;;1.92;;
75854;SDS011;64502;59.976;30.316;2024-02-21T00:13:31;6.60;;;1.65;;
75854;SDS011;64502;59.976;30.316;2024-02-21T00:15:57;5.70;;;1.67;;
75854;SDS011;64502;59.976;30.316;2024-02-21T00:18:23;4.95;;;1.67;;
75854;SDS011;64502;59.976;30.316;2024-02-21T00:20:48;7.82;;;1.80;;
75854;SDS011;64502;59.976;30.316;2024-02-21T00:23:14;5.25;;;1.95;;
75854;SDS011;64502;59.976;30.316;2024-02-21T00:25:39;4.88;;;1.80;;
75854;SDS011;64502;59.976;30.316;2024-02-21T00:28:05;7.85;;;2.53;;
75854;SDS011;64502;59.976;30.316;2024-02-21T00:30:33;5.53;;;1.92;;
75854;SDS011;64502;59.976;30.316;2024-02-21T00:32:59;6.47;;;1.75;;
75854;SDS011;64502;59.976;30.316;2024-02-21T00:35:24;6.82;;;2.20;;
75854;SDS011;64502;59.976;30.316;2024-02-21T00:37:50;6.38;;;1.90;;
75854;SDS011;64502;59.976;30.316;2024-02-21T00:40:17;7.65;;;1.95;;
75854;SDS011;64502;59.976;30.316;2024-02-21T00:42:45;6.95;;;2.17;;
75854;SDS011;64502;59.976;30.316;2024-02-21T00:45:11;5.90;;;1.85;;
75854;SDS011;64502;59.976;30.316;2024-02-21T00:47:37;7.03;;;2.50;;
75854;SDS011;64502;59.976;30.316;2024-02-21T00:50:02;5.80;;;2.03;;
75854;SDS011;64502;59.976;30.316;2024-02-21T00:52:28;9.27;;;2.03;;
75854;SDS011;64502;59.976;30.316;2024-02-21T00:54:53;6.25;;;1.95;;
75854;SDS011;64502;59.976;30.316;2024-02-21T00:57:19;8.90;;;2.05;;
75854;SDS011;64502;59.976;30.316;2024-02-21T00:59:45;5.45;;;1.73;;
75854;SDS011;64502;59.976;30.316;2024-02-21T01:02:10;6.68;;;1.73;;
75854;SDS011;64502;59.976;30.316;2024-02-21T01:04:59;7.28;;;1.98;;
75854;SDS011;64502;59.976;30.316;2024-02-21T01:07:25;9.00;;;1.90;;
75854;SDS011;64502;59.976;30.316;2024-02-21T01:09:50;5.85;;;2.10;;
75854;SDS011;64502;59.976;30.316;2024-02-21T01:12:16;6.97;;;2.08;;
75854;SDS011;64502;59.976;30.316;2024-02-21T01:14:42;5.93;;;2.00;;
75854;SDS011;64502;59.976;30.316;2024-02-21T01:17:08;6.30;;;2.15;;
75854;SDS011;64502;59.976;30.316;2024-02-21T01:19:33;7.55;;;2.45;;
75854;SDS011;64502;59.976;30.316;2024-02-21T01:21:59;7.40;;;2.45;;
75854;SDS011;64502;59.976;30.316;2024-02-21T01:24:24;5.25;;;1.90;;
75854;SDS011;64502;59.976;30.316;2024-02-21T01:26:50;6.82;;;1.95;;
75854;SDS011;64502;59.976;30.316;2024-02-21T01:29:16;8.02;;;1.65;;
75854;SDS011;64502;59.976;30.316;2024-02-21T01:31:41;6.47;;;2.35;;
75854;SDS011;64502;59.976;30.316;2024-02-21T01:34:07;8.68;;;2.90;;
75854;SDS011;64502;59.976;30.316;2024-02-21T01:36:34;7.75;;;3.15;;
75854;SDS011;64502;59.976;30.316;2024-02-21T01:38:59;4.32;;;1.88;;
75854;SDS011;64502;59.976;30.316;2024-02-21T01:41:25;7.50;;;2.03;;
75854;SDS011;64502;59.976;30.316;2024-02-21T01:43:50;7.00;;;1.63;;
75854;SDS011;64502;59.976;30.316;2024-02-21T01:46:16;7.53;;;2.30;;
75854;SDS011;64502;59.976;30.316;2024-02-21T01:48:42;8.85;;;2.55;;
75854;SDS011;64502;59.976;30.316;2024-02-21T01:51:07;6.72;;;2.20;;
75854;SDS011;64502;59.976;30.316;2024-02-21T01:53:34;9.23;;;2.40;;
75854;SDS011;64502;59.976;30.316;2024-02-21T01:56:03;6.82;;;2.42;;
75854;SDS011;64502;59.976;30.316;2024-02-21T01:58:30;7.18;;;2.00;;
75854;SDS011;64502;59.976;30.316;2024-02-21T02:00:58;5.97;;;1.90;;
75854;SDS011;64502;59.976;30.316;2024-02-21T02:03:24;6.82;;;2.20;;
75854;SDS011;64502;59.976;30.316;2024-02-21T02:05:50;7.32;;;1.75;;
75854;SDS011;64502;59.976;30.316;2024-02-21T02:08:17;4.25;;;1.90;;
75854;SDS011;64502;59.976;30.316;2024-02-21T02:10:47;8.48;;;2.83;;
75854;SDS011;64502;59.976;30.316;2024-02-21T02:13:13;5.93;;;2.05;;
75854;SDS011;64502;59.976;30.316;2024-02-21T02:15:42;4.95;;;2.28;;
75854;SDS011;64502;59.976;30.316;2024-02-21T02:18:27;10.90;;;2.33;;
75854;SDS011;64502;59.976;30.316;2024-02-21T02:20:53;5.85;;;1.48;;
75854;SDS011;64502;59.976;30.316;2024-02-21T02:23:31;6.40;;;1.55;;
75854;SDS011;64502;59.976;30.316;2024-02-21T02:25:57;5.07;;;1.60;;
75854;SDS011;64502;59.976;30.316;2024-02-21T02:28:23;7.15;;;1.90;;
75854;SDS011;64502;59.976;30.316;2024-02-21T02:30:49;5.82;;;2.03;;
75854;SDS011;64502;59.976;30.316;2024-02-21T02:33:15;4.13;;;1.73;;
75854;SDS011;64502;59.976;30.316;2024-02-21T02:35:44;3.50;;;1.48;;
75854;SDS011;64502;59.976;30.316;2024-02-21T02:38:10;5.85;;;2.08;;
75854;SDS011;64502;59.976;30.316;2024-02-21T02:40:37;7.93;;;1.88;;
75854;SDS011;64502;59.976;30.316;2024-02-21T02:43:04;5.22;;;1.80;;
75854;SDS011;64502;59.976;30.316;2024-02-21T02:45:29;8.13;;;1.85;;
75854;SDS011;64502;59.976;30.316;2024-02-21T02:47:56;3.92;;;1.27;;
75854;SDS011;64502;59.976;30.316;2024-02-21T02:50:26;6.07;;;2.65;;
75854;SDS011;64502;59.976;30.316;2024-02-21T02:52:53;3.83;;;1.23;;
75854;SDS011;64502;59.976;30.316;2024-02-21T02:55:36;4.70;;;1.13;;
75854;SDS011;64502;59.976;30.316;2024-02-21T02:58:02;9.48;;;1.83;;
75854;SDS011;64502;59.976;30.316;2024-02-21T03:00:28;5.28;;;1.67;;
75854;SDS011;64502;59.976;30.316;2024-02-21T03:02:53;3.60;;;1.38;;
75854;SDS011;64502;59.976;30.316;2024-02-21T03:05:20;4.20;;;1.58;;
75854;SDS011;64502;59.976;30.316;2024-02-21T03:07:47;4.90;;;1.38;;
75854;SDS011;64502;59.976;30.316;2024-02-21T03:10:13;5.78;;;1.45;;
75854;SDS011;64502;59.976;30.316;2024-02-21T03:12:42;8.57;;;1.77;;
75854;SDS011;64502;59.976;30.316;2024-02-21T03:15:08;6.47;;;1.67;;
75854;SDS011;64502;59.976;30.316;2024-02-21T03:17:34;4.38;;;1.50;;
75854;SDS011;64502;59.976;30.316;2024-02-21T03:20:18;3.30;;;1.33;;
75854;SDS011;64502;59.976;30.316;2024-02-21T03:22:44;4.80;;;1.88;;
75854;SDS011;64502;59.976;30.316;2024-02-21T03:25:10;4.35;;;1.98;;
75854;SDS011;64502;59.976;30.316;2024-02-21T03:27:36;5.63;;;2.10;;
75854;SDS011;64502;59.976;30.316;2024-02-21T03:30:02;5.95;;;1.67;;
75854;SDS011;64502;59.976;30.316;2024-02-21T03:32:29;3.90;;;2.15;;
75854;SDS011;64502;59.976;30.316;2024-02-21T03:34:55;5.38;;;1.75;;
75854;SDS011;64502;59.976;30.316;2024-02-21T03:37:20;4.18;;;1.70;;
75854;SDS011;64502;59.976;30.316;2024-02-21T03:39:46;7.65;;;2.00;;
75854;SDS011;64502;59.976;30.316;2024-02-21T03:42:12;4.47;;;1.80;;
75854;SDS011;64502;59.976;30.316;2024-02-21T03:44:38;3.88;;;2.00;;
75854;SDS011;64502;59.976;30.316;2024-02-21T03:47:04;5.78;;;1.90;;
75854;SDS011;64502;59.976;30.316;2024-02-21T03:49:30;6.35;;;2.00;;
75854;SDS011;64502;59.976;30.316;2024-02-21T03:51:56;4.03;;;1.35;;
75854;SDS011;64502;59.976;30.316;2024-02-21T03:54:21;4.75;;;2.15;;
75854;SDS011;64502;59.976;30.316;2024-02-21T03:56:47;4.90;;;1.77;;
75854;SDS011;64502;59.976;30.316;2024-02-21T03:59:14;5.18;;;1.70;;
75854;SDS011;64502;59.976;30.316;2024-02-21T04:01:39;6.07;;;1.77;;
75854;SDS011;64502;59.976;30.316;2024-02-21T04:04:05;4.18;;;1.42;;
75854;SDS011;64502;59.976;30.316;2024-02-21T04:06:30;3.97;;;1.85;;
75854;SDS011;64502;59.976;30.316;2024-02-21T04:08:56;5.80;;;1.40;;
75854;SDS011;64502;59.976;30.316;2024-02-21T04:11:22;4.47;;;1.35;;
75854;SDS011;64502;59.976;30.316;2024-02-21T04:13:48;5.28;;;1.52;;
75854;SDS011;64502;59.976;30.316;2024-02-21T04:16:15;5.57;;;1.90;;
75854;SDS011;64502;59.976;30.316;2024-02-21T04:18:42;5.22;;;1.83;;
75854;SDS011;64502;59.976;30.316;2024-02-21T04:21:08;5.90;;;2.05;;
75854;SDS011;64502;59.976;30.316;2024-02-21T04:23:34;4.60;;;2.13;;
75854;SDS011;64502;59.976;30.316;2024-02-21T04:25:59;7.25;;;2.60;;
75854;SDS011;64502;59.976;30.316;2024-02-21T04:28:25;7.85;;;2.63;;
75854;SDS011;64502;59.976;30.316;2024-02-21T04:30:51;10.35;;;2.60;;
75854;SDS011;64502;59.976;30.316;2024-02-21T04:33:16;6.88;;;2.85;;
75854;SDS011;64502;59.976;30.316;2024-02-21T04:35:42;11.63;;;3.75;;
75854;SDS011;64502;59.976;30.316;2024-02-21T04:38:07;5.80;;;3.33;;
75854;SDS011;64502;59.976;30.316;2024-02-21T04:40:33;6.43;;;3.25;;
75854;SDS011;64502;59.976;30.316;2024-02-21T04:42:59;8.32;;;3.28;;
75854;SDS011;64502;59.976;30.316;2024-02-21T04:45:24;8.98;;;3.42;;
75854;SDS011;64502;59.976;30.316;2024-02-21T04:47:50;7.70;;;2.55;;
75854;SDS011;64502;59.976;30.316;2024-02-21T04:50:15;9.15;;;3.17;;
75854;SDS011;64502;59.976;30.316;2024-02-21T04:52:42;11.85;;;3.63;;
75854;SDS011;64502;59.976;30.316;2024-02-21T04:55:08;6.28;;;2.80;;
75854;SDS011;64502;59.976;30.316;2024-02-21T04:57:34;6.30;;;2.90;;
75854;SDS011;64502;59.976;30.316;2024-02-21T05:00:00;5.57;;;2.80;;
75854;SDS011;64502;59.976;30.316;2024-02-21T05:02:25;6.50;;;2.92;;
75854;SDS011;64502;59.976;30.316;2024-02-21T05:04:52;12.38;;;3.50;;
75854;SDS011;64502;59.976;30.316;2024-02-21T05:07:17;8.30;;;3.13;;
75854;SDS011;64502;59.976;30.316;2024-02-21T05:09:44;7.65;;;3.00;;
75854;SDS011;64502;59.976;30.316;2024-02-21T05:12:10;9.05;;;3.10;;
75854;SDS011;64502;59.976;30.316;2024-02-21T05:14:36;7.63;;;3.08;;
75854;SDS011;64502;59.976;30.316;2024-02-21T05:17:02;9.30;;;3.20;;
75854;SDS011;64502;59.976;30.316;2024-02-21T05:19:31;9.55;;;3.83;;
75854;SDS011;64502;59.976;30.316;2024-02-21T05:21:58;8.80;;;3.80;;
75854;SDS011;64502;59.976;30.316;2024-02-21T05:24:24;8.38;;;3.50;;
75854;SDS011;64502;59.976;30.316;2024-02-21T05:26:50;6.57;;;2.42;;
75854;SDS011;64502;59.976;30.316;2024-02-21T05:29:16;13.15;;;4.30;;
75854;SDS011;64502;59.976;30.316;2024-02-21T05:34:16;8.73;;;3.92;;
75854;SDS011;64502;59.976;30.316;2024-02-21T05:36:43;10.27;;;2.65;;
75854;SDS011;64502;59.976;30.316;2024-02-21T05:39:09;6.93;;;3.28;;
75854;SDS011;64502;59.976;30.316;2024-02-21T05:41:35;8.95;;;3.70;;
75854;SDS011;64502;59.976;30.316;2024-02-21T05:44:00;9.85;;;3.40;;
75854;SDS011;64502;59.976;30.316;2024-02-21T05:46:26;9.85;;;4.38;;
75854;SDS011;64502;59.976;30.316;2024-02-21T05:48:52;11.68;;;4.13;;
75854;SDS011;64502;59.976;30.316;2024-02-21T05:51:20;10.02;;;3.30;;
75854;SDS011;64502;59.976;30.316;2024-02-21T05:53:45;17.45;;;3.83;;
75854;SDS011;64502;59.976;30.316;2024-02-21T05:56:11;7.22;;;2.80;;
75854;SDS011;64502;59.976;30.316;2024-02-21T05:58:38;8.38;;;2.83;;
75854;SDS011;64502;59.976;30.316;2024-02-21T06:01:04;8.27;;;3.03;;
75854;SDS011;64502;59.976;30.316;2024-02-21T06:03:32;5.57;;;2.45;;
75854;SDS011;64502;59.976;30.316;2024-02-21T06:08:42;4.57;;;2.05;;
75854;SDS011;64502;59.976;30.316;2024-02-21T06:11:08;5.82;;;3.03;;
75854;SDS011;64502;59.976;30.316;2024-02-21T06:13:37;7.57;;;2.40;;
75854;SDS011;64502;59.976;30.316;2024-02-21T06:16:05;7.68;;;2.67;;
75854;SDS011;64502;59.976;30.316;2024-02-21T06:18:31;6.28;;;2.22;;
75854;SDS011;64502;59.976;30.316;2024-02-21T06:20:57;4.00;;;1.67;;
75854;SDS011;64502;59.976;30.316;2024-02-21T06:23:23;7.53;;;2.55;;
75854;SDS011;64502;59.976;30.316;2024-02-21T06:25:48;8.23;;;2.25;;
75854;SDS011;64502;59.976;30.316;2024-02-21T06:28:14;4.93;;;1.98;;
75854;SDS011;64502;59.976;30.316;2024-02-21T06:30:39;8.10;;;2.08;;
75854;SDS011;64502;59.976;30.316;2024-02-21T06:33:05;6.15;;;2.25;;
75854;SDS011;64502;59.976;30.316;2024-02-21T06:35:33;8.50;;;2.72;;
75854;SDS011;64502;59.976;30.316;2024-02-21T06:37:58;5.65;;;2.13;;
75854;SDS011;64502;59.976;30.316;2024-02-21T06:40:24;5.25;;;2.20;;
75854;SDS011;64502;59.976;30.316;2024-02-21T06:42:50;6.72;;;2.42;;
75854;SDS011;64502;59.976;30.316;2024-02-21T06:45:16;11.38;;;3.05;;
75854;SDS011;64502;59.976;30.316;2024-02-21T06:47:43;6.55;;;3.08;;
75854;SDS011;64502;59.976;30.316;2024-02-21T06:50:08;6.95;;;2.95;;
75854;SDS011;64502;59.976;30.316;2024-02-21T06:52:35;7.50;;;2.65;;
75854;SDS011;64502;59.976;30.316;2024-02-21T06:55:02;5.03;;;2.95;;
75854;SDS011;64502;59.976;30.316;2024-02-21T06:57:30;5.88;;;2.78;;
75854;SDS011;64502;59.976;30.316;2024-02-21T06:59:56;6.90;;;2.53;;
75854;SDS011;64502;59.976;30.316;2024-02-21T07:05:06;7.10;;;2.40;;
75854;SDS011;64502;59.976;30.316;2024-02-21T07:07:50;6.50;;;2.33;;
75854;SDS011;64502;59.976;30.316;2024-02-21T07:13:00;5.47;;;2.78;;
75854;SDS011;64502;59.976;30.316;2024-02-21T07:15:26;7.40;;;2.92;;
75854;SDS011;64502;59.976;30.316;2024-02-21T07:17:52;5.85;;;3.00;;
75854;SDS011;64502;59.976;30.316;2024-02-21T07:20:18;8.70;;;3.25;;
75854;SDS011;64502;59.976;30.316;2024-02-21T07:22:43;7.60;;;2.92;;
75854;SDS011;64502;59.976;30.316;2024-02-21T07:25:09;8.82;;;2.72;;
75854;SDS011;64502;59.976;30.316;2024-02-21T07:27:35;11.73;;;3.45;;
75854;SDS011;64502;59.976;30.316;2024-02-21T07:30:00;9.02;;;3.40;;
75854;SDS011;64502;59.976;30.316;2024-02-21T07:32:26;9.55;;;3.53;;
75854;SDS011;64502;59.976;30.316;2024-02-21T07:34:52;11.05;;;4.05;;
75854;SDS011;64502;59.976;30.316;2024-02-21T07:37:17;9.65;;;3.58;;
75854;SDS011;64502;59.976;30.316;2024-02-21T07:39:43;7.88;;;2.90;;
75854;SDS011;64502;59.976;30.316;2024-02-21T07:42:08;8.32;;;3.55;;
75854;SDS011;64502;59.976;30.316;2024-02-21T07:44:34;10.00;;;3.80;;
75854;SDS011;64502;59.976;30.316;2024-02-21T07:47:00;8.02;;;3.13;;
75854;SDS011;64502;59.976;30.316;2024-02-21T07:49:26;7.85;;;2.95;;
75854;SDS011;64502;59.976;30.316;2024-02-21T07:51:52;16.35;;;3.72;;
75854;SDS011;64502;59.976;30.316;2024-02-21T07:54:18;6.00;;;3.13;;
75854;SDS011;64502;59.976;30.316;2024-02-21T07:56:44;9.02;;;3.78;;
75854;SDS011;64502;59.976;30.316;2024-02-21T07:59:09;7.38;;;3.17;;
75854;SDS011;64502;59.976;30.316;2024-02-21T08:01:35;8.23;;;3.17;;
75854;SDS011;64502;59.976;30.316;2024-02-21T08:04:01;8.10;;;2.92;;
75854;SDS011;64502;59.976;30.316;2024-02-21T08:06:27;9.10;;;3.40;;
75854;SDS011;64502;59.976;30.316;2024-02-21T08:08:53;7.05;;;2.92;;
75854;SDS011;64502;59.976;30.316;2024-02-21T08:11:18;8.70;;;3.33;;
75854;SDS011;64502;59.976;30.316;2024-02-21T08:13:44;9.63;;;3.35;;
75854;SDS011;64502;59.976;30.316;2024-02-21T08:16:10;10.95;;;4.75;;
75854;SDS011;64502;59.976;30.316;2024-02-21T08:18:35;12.13;;;3.88;;
75854;SDS011;64502;59.976;30.316;2024-02-21T08:21:03;6.63;;;3.20;;
75854;SDS011;64502;59.976;30.316;2024-02-21T08:23:29;8.20;;;3.30;;
75854;SDS011;64502;59.976;30.316;2024-02-21T08:25:54;7.10;;;2.85;;
75854;SDS011;64502;59.976;30.316;2024-02-21T08:28:21;9.25;;;3.50;;
75854;SDS011;64502;59.976;30.316;2024-02-21T08:30:46;10.38;;;3.30;;
75854;SDS011;64502;59.976;30.316;2024-02-21T08:33:14;7.15;;;3.08;;
75854;SDS011;64502;59.976;30.316;2024-02-21T08:35:40;10.70;;;3.35;;
75854;SDS011;64502;59.976;30.316;2024-02-21T08:38:06;9.80;;;4.05;;
75854;SDS011;64502;59.976;30.316;2024-02-21T08:40:31;10.25;;;3.65;;
75854;SDS011;64502;59.976;30.316;2024-02-21T08:42:57;9.95;;;3.60;;
75854;SDS011;64502;59.976;30.316;2024-02-21T08:45:22;6.85;;;3.50;;
75854;SDS011;64502;59.976;30.316;2024-02-21T08:47:48;10.32;;;3.38;;
75854;SDS011;64502;59.976;30.316;2024-02-21T08:50:13;9.27;;;3.95;;
75854;SDS011;64502;59.976;30.316;2024-02-21T08:52:39;8.38;;;3.65;;
75854;SDS011;64502;59.976;30.316;2024-02-21T08:55:05;9.88;;;3.58;;
75854;SDS011;64502;59.976;30.316;2024-02-21T08:57:31;7.70;;;3.13;;
75854;SDS011;64502;59.976;30.316;2024-02-21T09:00:03;9.05;;;3.83;;
75854;SDS011;64502;59.976;30.316;2024-02-21T09:02:35;13.90;;;4.00;;
75854;SDS011;64502;59.976;30.316;2024-02-21T09:05:02;10.07;;;4.18;;
75854;SDS011;64502;59.976;30.316;2024-02-21T09:07:30;7.05;;;2.92;;
75854;SDS011;64502;59.976;30.316;2024-02-21T09:09:56;6.97;;;2.97;;
75854;SDS011;64502;59.976;30.316;2024-02-21T09:12:21;8.27;;;3.97;;
75854;SDS011;64502;59.976;30.316;2024-02-21T09:14:47;7.18;;;3.30;;
75854;SDS011;64502;59.976;30.316;2024-02-21T09:17:15;9.88;;;3.88;;
75854;SDS011;64502;59.976;30.316;2024-02-21T09:19:45;6.50;;;3.10;;
75854;SDS011;64502;59.976;30.316;2024-02-21T09:22:12;10.68;;;3.80;;
75854;SDS011;64502;59.976;30.316;2024-02-21T09:24:37;6.63;;;2.53;;
75854;SDS011;64502;59.976;30.316;2024-02-21T09:27:03;9.32;;;3.30;;
75854;SDS011;64502;59.976;30.316;2024-02-21T09:29:29;13.32;;;2.88;;
75854;SDS011;64502;59.976;30.316;2024-02-21T09:31:55;6.60;;;2.65;;
75854;SDS011;64502;59.976;30.316;2024-02-21T09:34:20;9.25;;;3.20;;
75854;SDS011;64502;59.976;30.316;2024-02-21T09:36:46;8.05;;;2.80;;
75854;SDS011;64502;59.976;30.316;2024-02-21T09:39:12;7.90;;;3.22;;
75854;SDS011;64502;59.976;30.316;2024-02-21T09:41:41;7.80;;;2.92;;
75854;SDS011;64502;59.976;30.316;2024-02-21T09:44:13;11.57;;;3.17;;
75854;SDS011;64502;59.976;30.316;2024-02-21T09:49:34;7.30;;;2.97;;
75854;SDS011;64502;59.976;30.316;2024-02-21T09:52:06;10.55;;;2.30;;
75854;SDS011;64502;59.976;30.316;2024-02-21T09:54:32;8.05;;;2.40;;
75854;SDS011;64502;59.976;30.316;2024-02-21T09:57:02;6.63;;;2.45;;
75854;SDS011;64502;59.976;30.316;2024-02-21T09:59:31;10.48;;;3.15;;
75854;SDS011;64502;59.976;30.316;2024-02-21T10:01:58;8.18;;;2.75;;
75854;SDS011;64502;59.976;30.316;2024-02-21T10:04:25;8.85;;;2.58;;
75854;SDS011;64502;59.976;30.316;2024-02-21T10:06:51;10.70;;;3.28;;
75854;SDS011;64502;59.976;30.316;2024-02-21T10:09:20;7.72;;;3.63;;
75854;SDS011;64502;59.976;30.316;2024-02-21T10:11:48;10.95;;;3.17;;
75854;SDS011;64502;59.976;30.316;2024-02-21T10:14:15;7.82;;;2.60;;
75854;SDS011;64502;59.976;30.316;2024-02-21T10:16:40;7.65;;;2.88;;
75854;SDS011;64502;59.976;30.316;2024-02-21T10:19:15;7.07;;;3.30;;
75854;SDS011;64502;59.976;30.316;2024-02-21T10:21:41;8.02;;;3.42;;
75854;SDS011;64502;59.976;30.316;2024-02-21T10:24:07;11.13;;;3.58;;
75854;SDS011;64502;59.976;30.316;2024-02-21T10:26:32;13.52;;;3.33;;
75854;SDS011;64502;59.976;30.316;2024-02-21T10:29:17;12.40;;;3.65;;
75854;SDS011;64502;59.976;30.316;2024-02-21T10:31:42;10.27;;;3.35;;
75854;SDS011;64502;59.976;30.316;2024-02-21T10:34:08;9.70;;;3.38;;
75854;SDS011;64502;59.976;30.316;2024-02-21T10:36:34;11.50;;;3.28;;
75854;SDS011;64502;59.976;30.316;2024-02-21T10:38:59;14.15;;;4.63;;
75854;SDS011;64502;59.976;30.316;2024-02-21T10:41:25;10.75;;;3.53;;
75854;SDS011;64502;59.976;30.316;2024-02-21T10:43:53;11.40;;;4.20;;
75854;SDS011;64502;59.976;30.316;2024-02-21T10:46:20;11.02;;;3.70;;
75854;SDS011;64502;59.976;30.316;2024-02-21T10:48:47;14.18;;;5.20;;
75854;SDS011;64502;59.976;30.316;2024-02-21T10:51:20;9.75;;;3.65;;
75854;SDS011;64502;59.976;30.316;2024-02-21T10:54:13;13.07;;;3.83;;
75854;SDS011;64502;59.976;30.316;2024-02-21T10:57:02;15.10;;;4.00;;
75854;SDS011;64502;59.976;30.316;2024-02-21T10:59:29;12.82;;;3.20;;
75854;SDS011;64502;59.976;30.316;2024-02-21T11:01:57;10.80;;;3.78;;
75854;SDS011;64502;59.976;30.316;2024-02-21T11:04:23;12.38;;;3.33;;
75854;SDS011;64502;59.976;30.316;2024-02-21T11:06:49;10.23;;;3.90;;
75854;SDS011;64502;59.976;30.316;2024-02-21T11:09:16;16.08;;;4.43;;
75854;SDS011;64502;59.976;30.316;2024-02-21T11:11:42;14.75;;;4.82;;
75854;SDS011;64502;59.976;30.316;2024-02-21T11:14:18;14.80;;;3.80;;
75854;SDS011;64502;59.976;30.316;2024-02-21T11:16:45;11.98;;;3.85;;
75854;SDS011;64502;59.976;30.316;2024-02-21T11:21:45;14.18;;;4.72;;
75854;SDS011;64502;59.976;30.316;2024-02-21T11:24:10;8.85;;;3.05;;
75854;SDS011;64502;59.976;30.316;2024-02-21T11:26:39;12.25;;;4.15;;
75854;SDS011;64502;59.976;30.316;2024-02-21T11:29:08;10.70;;;4.40;;
75854;SDS011;64502;59.976;30.316;2024-02-21T11:31:39;12.50;;;3.88;;
75854;SDS011;64502;59.976;30.316;2024-02-21T11:34:09;12.48;;;4.60;;
75854;SDS011;64502;59.976;30.316;2024-02-21T11:39:11;16.08;;;4.85;;
75854;SDS011;64502;59.976;30.316;2024-02-21T11:41:36;13.48;;;4.35;;
75854;SDS011;64502;59.976;30.316;2024-02-21T11:44:02;12.88;;;4.55;;
75854;SDS011;64502;59.976;30.316;2024-02-21T11:46:29;18.20;;;4.50;;
75854;SDS011;64502;59.976;30.316;2024-02-21T11:48:54;14.50;;;5.78;;
75854;SDS011;64502;59.976;30.316;2024-02-21T11:51:26;10.38;;;4.72;;
75854;SDS011;64502;59.976;30.316;2024-02-21T11:53:52;16.42;;;6.30;;
75854;SDS011;64502;59.976;30.316;2024-02-21T11:56:18;14.68;;;5.15;;
75854;SDS011;64502;59.976;30.316;2024-02-21T11:58:48;12.82;;;4.65;;
75854;SDS011;64502;59.976;30.316;2024-02-21T12:01:14;14.48;;;4.65;;
75854;SDS011;64502;59.976;30.316;2024-02-21T12:03:40;13.30;;;5.13;;
75854;SDS011;64502;59.976;30.316;2024-02-21T12:06:07;13.50;;;4.80;;
75854;SDS011;64502;59.976;30.316;2024-02-21T12:08:43;15.07;;;4.78;;
75854;SDS011;64502;59.976;30.316;2024-02-21T12:11:16;14.60;;;5.65;;
75854;SDS011;64502;59.976;30.316;2024-02-21T12:13:46;14.95;;;6.05;;
75854;SDS011;64502;59.976;30.316;2024-02-21T12:16:14;18.58;;;5.57;;
75854;SDS011;64502;59.976;30.316;2024-02-21T12:18:40;12.73;;;4.90;;
75854;SDS011;64502;59.976;30.316;2024-02-21T12:21:06;14.50;;;5.07;;
75854;SDS011;64502;59.976;30.316;2024-02-21T12:23:31;18.98;;;5.40;;
75854;SDS011;64502;59.976;30.316;2024-02-21T12:25:58;19.92;;;5.80;;
75854;SDS011;64502;59.976;30.316;2024-02-21T12:28:24;13.55;;;5.75;;
75854;SDS011;64502;59.976;30.316;2024-02-21T12:30:50;11.45;;;4.90;;
75854;SDS011;64502;59.976;30.316;2024-02-21T12:33:15;13.23;;;5.85;;
75854;SDS011;64502;59.976;30.316;2024-02-21T12:35:41;13.27;;;4.78;;
75854;SDS011;64502;59.976;30.316;2024-02-21T12:38:06;14.15;;;5.55;;
75854;SDS011;64502;59.976;30.316;2024-02-21T12:40:32;13.68;;;5.05;;
75854;SDS011;64502;59.976;30.316;2024-02-21T12:42:59;14.00;;;5.15;;
75854;SDS011;64502;59.976;30.316;2024-02-21T12:45:27;16.10;;;5.10;;
75854;SDS011;64502;59.976;30.316;2024-02-21T12:47:53;12.88;;;5.00;;
75854;SDS011;64502;59.976;30.316;2024-02-21T12:50:19;13.95;;;4.82;;
75854;SDS011;64502;59.976;30.316;2024-02-21T12:52:45;15.80;;;6.68;;
75854;SDS011;64502;59.976;30.316;2024-02-21T12:55:11;10.55;;;4.45;;
75854;SDS011;64502;59.976;30.316;2024-02-21T12:57:38;17.30;;;6.10;;
75854;SDS011;64502;59.976;30.316;2024-02-21T13:00:05;15.73;;;6.10;;
75854;SDS011;64502;59.976;30.316;2024-02-21T13:02:33;19.67;;;5.80;;
75854;SDS011;64502;59.976;30.316;2024-02-21T13:05:00;15.90;;;5.30;;
75854;SDS011;64502;59.976;30.316;2024-02-21T13:07:27;18.17;;;7.15;;
75854;SDS011;64502;59.976;30.316;2024-02-21T13:09:53;14.45;;;6.07;;
75854;SDS011;64502;59.976;30.316;2024-02-21T13:12:19;14.65;;;5.15;;
75854;SDS011;64502;59.976;30.316;2024-02-21T13:14:45;16.45;;;6.22;;
75854;SDS011;64502;59.976;30.316;2024-02-21T13:17:10;17.48;;;6.53;;
75854;SDS011;64502;59.976;30.316;2024-02-21T13:19:36;15.00;;;5.78;;
75854;SDS011;64502;59.976;30.316;2024-02-21T13:22:01;19.25;;;6.63;;
75854;SDS011;64502;59.976;30.316;2024-02-21T13:24:27;14.45;;;6.38;;
75854;SDS011;64502;59.976;30.316;2024-02-21T13:26:55;15.80;;;5.93;;
75854;SDS011;64502;59.976;30.316;2024-02-21T13:29:20;12.85;;;4.50;;
75854;SDS011;64502;59.976;30.316;2024-02-21T13:31:46;16.75;;;6.00;;
75854;SDS011;64502;59.976;30.316;2024-02-21T13:34:11;20.80;;;6.75;;
75854;SDS011;64502;59.976;30.316;2024-02-21T13:36:37;15.40;;;5.10;;
75854;SDS011;64502;59.976;30.316;2024-02-21T13:39:21;15.05;;;5.70;;
75854;SDS011;64502;59.976;30.316;2024-02-21T13:41:47;12.88;;;4.90;;
75854;SDS011;64502;59.976;30.316;2024-02-21T13:44:13;19.83;;;6.57;;
75854;SDS011;64502;59.976;30.316;2024-02-21T13:46:39;18.52;;;6.63;;
75854;SDS011;64502;59.976;30.316;2024-02-21T13:49:05;12.15;;;5.30;;
75854;SDS011;64502;59.976;30.316;2024-02-21T13:51:36;15.00;;;6.63;;
75854;SDS011;64502;59.976;30.316;2024-02-21T13:54:02;15.43;;;6.05;;
75854;SDS011;64502;59.976;30.316;2024-02-21T13:56:29;17.00;;;5.72;;
75854;SDS011;64502;59.976;30.316;2024-02-21T13:58:55;18.38;;;6.28;;
75854;SDS011;64502;59.976;30.316;2024-02-21T14:01:21;15.52;;;6.35;;
75854;SDS011;64502;59.976;30.316;2024-02-21T14:03:46;14.75;;;5.85;;
75854;SDS011;64502;59.976;30.316;2024-02-21T14:06:12;15.38;;;5.22;;
75854;SDS011;64502;59.976;30.316;2024-02-21T14:08:37;17.60;;;6.22;;
75854;SDS011;64502;59.976;30.316;2024-02-21T14:11:05;16.17;;;6.38;;
75854;SDS011;64502;59.976;30.316;2024-02-21T14:13:31;17.80;;;5.90;;
75854;SDS011;64502;59.976;30.316;2024-02-21T14:15:57;14.18;;;5.95;;
75854;SDS011;64502;59.976;30.316;2024-02-21T14:18:22;19.52;;;5.95;;
75854;SDS011;64502;59.976;30.316;2024-02-21T14:20:49;19.08;;;6.28;;
75854;SDS011;64502;59.976;30.316;2024-02-21T14:23:15;13.25;;;5.57;;
75854;SDS011;64502;59.976;30.316;2024-02-21T14:25:40;18.17;;;6.75;;
75854;SDS011;64502;59.976;30.316;2024-02-21T14:28:07;15.63;;;5.63;;
75854;SDS011;64502;59.976;30.316;2024-02-21T14:30:34;17.50;;;6.00;;
75854;SDS011;64502;59.976;30.316;2024-02-21T14:33:00;16.35;;;6.10;;
75854;SDS011;64502;59.976;30.316;2024-02-21T14:35:25;18.35;;;7.97;;
75854;SDS011;64502;59.976;30.316;2024-02-21T14:37:51;16.52;;;6.50;;
75854;SDS011;64502;59.976;30.316;2024-02-21T14:40:26;17.05;;;6.05;;
75854;SDS011;64502;59.976;30.316;2024-02-21T14:42:55;14.30;;;5.88;;
75854;SDS011;64502;59.976;30.316;2024-02-21T14:48:05;17.60;;;7.05;;